Time;durP1;ratioP1;P1;durP2;ratioP2;P2;SDS_P1;SDS_P2;PMS_P1;PMS_P2;Temp;Humidity;BMP_temperature;BMP_pressure;BME280_temperature;BME280_humidity;BME280_pressure;Samples;Min_cycle;Max_cycle;Signal;HPM_P1;HPM_P2
2021/05/09 00:01:57;;;;;;;2.63;1.73;;;7.20;82.90;;;;;;5775567;22;20936;-60
2021/05/09 00:04:26;;;;;;;4.15;1.60;;;7.20;82.90;;;;;;5722339;22;20073;-62
2021/05/09 00:06:55;;;;;;;4.47;1.88;;;7.20;82.60;;;;;;5778445;22;20365;-62
2021/05/09 00:09:22;;;;;;;6.75;1.55;;;7.20;83.00;;;;;;5836391;22;20420;-61
2021/05/09 00:11:50;;;;;;;3.45;1.40;;;7.10;83.00;;;;;;5705325;22;20232;-61
2021/05/09 00:17:45;;;;;;;2.50;1.40;;;7.10;82.90;;;;;;5596196;23;20026;-63
2021/05/09 00:20:12;;;;;;;5.20;2.20;;;7.00;83.40;;;;;;5691405;23;21999;-61
2021/05/09 00:22:39;;;;;;;4.72;1.67;;;6.90;83.60;;;;;;5597060;23;20076;-62
2021/05/09 00:25:07;;;;;;;4.75;2.03;;;6.90;83.80;;;;;;5714620;23;20040;-60
2021/05/09 00:27:35;;;;;;;3.83;1.95;;;6.90;84.10;;;;;;5681931;23;20357;-62
2021/05/09 00:30:23;;;;;;;;;;;;;;;;;;;;;
2021/05/09 00:35:49;;;;;;;5.25;2.25;;;6.70;84.30;;;;;;5623475;23;20017;31
2021/05/09 00:38:16;;;;;;;3.47;2.05;;;6.70;84.70;;;;;;5669131;23;20247;-60
2021/05/09 00:40:43;;;;;;;3.60;1.50;;;6.70;84.50;;;;;;5671958;23;20041;-62
2021/05/09 00:46:04;;;;;;;3.63;1.60;;;6.60;84.60;;;;;;5600245;23;20026;-60
2021/05/09 00:54:26;;;;;;;5.35;1.40;;;6.50;84.80;;;;;;5662428;23;20068;31
2021/05/09 00:56:56;;;;;;;1.60;0.80;;;6.40;85.20;;;;;;5612802;23;20026;-61
2021/05/09 00:59:27;;;;;;;4.75;1.15;;;6.50;84.90;;;;;;5650813;23;21219;-62
2021/05/09 01:01:55;;;;;;;5.47;1.50;;;6.40;84.90;;;;;;5639804;23;20057;-61
2021/05/09 01:04:23;;;;;;;3.70;1.73;;;6.50;84.70;;;;;;5696144;23;20408;-61
2021/05/09 01:06:50;;;;;;;8.88;3.08;;;6.40;85.10;;;;;;5597762;23;20026;-61
2021/05/09 01:09:18;;;;;;;3.72;2.05;;;6.40;85.00;;;;;;5624920;23;20948;-62
2021/05/09 01:11:45;;;;;;;5.55;2.13;;;6.30;85.20;;;;;;5693455;23;20124;-60
2021/05/09 01:14:12;;;;;;;6.93;2.25;;;6.30;85.20;;;;;;5459949;23;20454;-62
2021/05/09 01:16:40;;;;;;;3.08;1.80;;;6.30;85.30;;;;;;5640331;23;20272;-60
2021/05/09 01:19:07;;;;;;;3.35;1.80;;;6.30;85.40;;;;;;5679579;23;20374;-62
2021/05/09 01:21:35;;;;;;;4.38;2.08;;;6.30;85.20;;;;;;5529711;23;20155;-61
2021/05/09 01:30:52;;;;;;;4.78;2.28;;;6.20;85.50;;;;;;5559300;23;20062;31
2021/05/09 01:33:47;;;;;;;3.50;1.90;;;6.20;85.50;;;;;;5685561;23;19927;31
2021/05/09 01:36:14;;;;;;;3.90;1.92;;;6.20;85.60;;;;;;5685626;23;21072;-60
2021/05/09 01:38:42;;;;;;;4.90;1.48;;;6.20;85.50;;;;;;5740093;23;20034;-61
2021/05/09 02:12:30;;;;;;;2.97;1.00;;;6.30;85.10;;;;;;4697872;23;21287;-62
2021/05/09 02:18:25;;;;;;;4.90;1.90;;;6.20;85.30;;;;;;5595187;23;20270;31
2021/05/09 03:37:58;;;;;;;5.50;1.45;;;7.00;83.20;;;;;;6204301;22;20178;31
2021/05/09 03:43:08;;;;;;;2.67;1.00;;;6.70;83.10;;;;;;6200563;22;20086;31
2021/05/09 03:45:34;;;;;;;;;;;6.70;83.50;;;;;;6263961;22;21160;-60
2021/05/09 03:48:03;;;;;;;3.80;1.10;;;6.70;83.50;;;;;;6211360;22;20075;-61
2021/05/09 04:25:25;;;;;;;4.85;1.65;;;6.60;84.10;;;;;;6196157;22;21487;-60
2021/05/09 04:27:51;;;;;;;4.20;1.65;;;6.60;84.00;;;;;;6193104;22;20185;-63
2021/05/09 04:30:20;;;;;;;3.30;1.60;;;6.70;84.00;;;;;;6194357;22;20212;-62
2021/05/09 04:32:59;;;;;;;4.47;1.92;;;6.80;83.80;;;;;;6162029;22;20021;31
2021/05/09 04:35:26;;;;;;;3.25;1.40;;;6.90;83.50;;;;;;6159498;22;21039;-61
2021/05/09 04:37:53;;;;;;;6.33;1.80;;;7.00;83.40;;;;;;6200061;22;21191;-62
2021/05/09 04:40:20;;;;;;;4.00;2.13;;;7.00;83.20;;;;;;6198000;22;20279;-61
2021/05/09 04:42:48;;;;;;;6.03;1.90;;;7.10;83.00;;;;;;6201479;22;20267;-61
2021/05/09 04:45:16;;;;;;;3.13;1.70;;;7.20;82.80;;;;;;6193233;22;20020;-63
2021/05/09 04:47:43;;;;;;;3.45;1.25;;;7.40;82.80;;;;;;6193430;22;20021;-61
2021/05/09 04:50:12;;;;;;;3.92;1.45;;;7.90;81.60;;;;;;6189191;22;20066;-62
2021/05/09 05:41:12;;;;;;;2.95;1.58;;;8.70;79.50;;;;;;6180075;22;853353;-59
2021/05/09 05:43:39;;;;;;;3.25;1.70;;;10.10;74.20;;;;;;6203023;22;20090;-59
2021/05/09 05:46:07;;;;;;;1.70;0.90;;;10.30;73.20;;;;;;6202491;22;20068;31
2021/05/09 05:48:34;;;;;;;2.50;1.20;;;10.40;72.50;;;;;;6179187;22;20046;-63
2021/05/09 05:51:01;;;;;;;1.93;1.03;;;10.60;71.90;;;;;;6205438;22;20837;-59
2021/05/09 05:53:29;;;;;;;2.83;1.30;;;10.80;71.70;;;;;;6202123;22;20096;-61
2021/05/09 05:55:56;;;;;;;3.45;1.20;;;11.00;71.30;;;;;;6204539;22;20027;-61
2021/05/09 05:58:25;;;;;;;2.85;1.40;;;11.00;71.10;;;;;;6201138;22;20023;-61
2021/05/09 06:00:53;;;;;;;2.20;1.23;;;11.20;70.80;;;;;;6221708;22;20303;31
2021/05/09 06:03:22;;;;;;;2.10;1.10;;;11.40;69.50;;;;;;6206398;22;20008;-62
2021/05/09 06:05:50;;;;;;;2.40;1.15;;;11.50;68.80;;;;;;6207011;22;20164;-60
2021/05/09 06:08:18;;;;;;;3.33;1.38;;;11.70;68.30;;;;;;6200770;22;20020;-61
2021/05/09 06:10:45;;;;;;;2.83;1.08;;;11.80;67.50;;;;;;6206177;22;20020;-63
2021/05/09 06:13:12;;;;;;;3.15;1.30;;;11.90;67.50;;;;;;6213249;22;20837;-63
2021/05/09 06:15:40;;;;;;;6.25;1.30;;;12.00;66.60;;;;;;6215461;22;20932;-63
2021/05/09 06:18:07;;;;;;;2.47;1.10;;;12.20;66.40;;;;;;6209433;22;20024;-62
2021/05/09 06:20:34;;;;;;;2.45;1.10;;;12.30;65.90;;;;;;6208371;22;20024;-62
2021/05/09 06:29:10;;;;;;;1.60;0.90;;;12.80;63.30;;;;;;6212077;22;19939;31
2021/05/09 06:31:38;;;;;;;2.25;1.15;;;12.90;63.10;;;;;;6207864;22;20024;-61
2021/05/09 06:34:06;;;;;;;2.88;1.45;;;13.00;62.80;;;;;;6209587;22;20024;-60
2021/05/09 06:36:33;;;;;;;4.57;1.45;;;13.10;62.50;;;;;;6201288;22;20303;-60
2021/05/09 06:44:40;;;;;;;2.17;1.10;;;13.60;61.10;;;;;;6195435;22;20153;-60
2021/05/09 06:47:22;;;;;;;2.35;1.52;;;13.70;60.00;;;;;;6188831;22;20520;-61
2021/05/09 07:31:04;;;;;;;2.90;1.10;;;15.70;54.40;;;;;;6190337;22;20081;-61
2021/05/09 07:33:31;;;;;;;1.75;0.85;;;15.70;54.70;;;;;;6198029;22;20035;-62
2021/05/09 07:35:59;;;;;;;3.60;1.20;;;15.80;54.60;;;;;;6194381;22;21146;-61
2021/05/09 07:38:26;;;;;;;3.03;1.10;;;15.90;54.00;;;;;;6196881;22;20028;-61
2021/05/09 07:40:55;;;;;;;3.05;1.30;;;16.10;54.40;;;;;;6192254;22;20265;-62
2021/05/09 07:43:22;;;;;;;0.85;0.68;;;16.20;53.90;;;;;;6195644;22;20472;-61
2021/05/09 08:01:15;;;;;;;2.10;0.90;;;16.90;52.40;;;;;;6210904;22;20432;-83
2021/05/09 08:03:42;;;;;;;1.15;0.70;;;17.10;52.20;;;;;;6249434;22;20031;-82
2021/05/09 08:06:09;;;;;;;3.45;1.27;;;17.20;51.60;;;;;;6223869;22;20110;-84
2021/05/09 08:08:37;;;;;;;3.85;0.90;;;17.30;51.30;;;;;;6249133;22;20023;-83
2021/05/09 08:11:04;;;;;;;1.45;0.80;;;17.50;51.40;;;;;;6248152;22;20352;-84
2021/05/09 08:13:31;;;;;;;3.60;0.90;;;17.60;51.60;;;;;;6248208;22;20352;-86
2021/05/09 08:15:59;;;;;;;1.17;0.63;;;17.80;51.20;;;;;;6275470;22;20084;-81
2021/05/09 08:18:27;;;;;;;3.13;1.10;;;17.90;50.50;;;;;;6245832;22;20024;-85
2021/05/09 08:20:55;;;;;;;3.33;1.45;;;18.10;50.30;;;;;;6273355;22;20184;-85
2021/05/09 08:23:23;;;;;;;2.22;1.23;;;18.20;50.50;;;;;;6274439;22;20159;-85
2021/05/09 08:25:50;;;;;;;4.25;1.92;;;18.20;49.80;;;;;;6275587;22;20028;-84
2021/05/09 08:28:17;;;;;;;3.08;0.85;;;18.40;49.00;;;;;;6250208;22;20016;-84
2021/05/09 08:30:45;;;;;;;1.55;0.70;;;18.60;50.00;;;;;;6275297;22;20024;-83
2021/05/09 08:33:12;;;;;;;2.33;0.75;;;18.70;47.50;;;;;;6226421;22;20099;-86
2021/05/09 08:35:40;;;;;;;1.40;0.65;;;18.90;49.20;;;;;;6275247;22;20208;-82
2021/05/09 08:38:08;;;;;;;2.92;0.88;;;19.10;47.80;;;;;;6275442;22;20027;-82
2021/05/09 08:40:35;;;;;;;3.10;1.20;;;19.20;47.80;;;;;;6277083;22;20015;-85
2021/05/09 08:43:04;;;;;;;3.05;0.90;;;19.30;47.30;;;;;;6276918;22;20027;-84
2021/05/09 08:45:31;;;;;;;2.40;0.90;;;19.50;46.40;;;;;;6240645;22;20030;-85
2021/05/09 08:48:01;;;;;;;2.38;0.80;;;19.60;46.90;;;;;;6198008;22;20325;-82
2021/05/09 08:50:28;;;;;;;2.53;0.93;;;19.70;44.60;;;;;;6251678;22;20083;-82
2021/05/09 08:52:56;;;;;;;1.50;0.68;;;19.70;45.60;;;;;;6250694;22;20219;-82
2021/05/09 08:55:26;;;;;;;1.55;0.70;;;19.90;46.10;;;;;;6263541;22;20030;-83
2021/05/09 08:57:54;;;;;;;;;;;20.10;44.20;;;;;;6251666;22;20322;-85
2021/05/09 09:00:24;;;;;;;2.28;1.08;;;20.20;45.30;;;;;;6246351;22;20474;-84
2021/05/09 09:02:52;;;;;;;1.13;0.70;;;20.30;46.00;;;;;;6277358;22;20365;-85
2021/05/09 09:05:37;;;;;;;1.13;0.60;;;20.30;44.70;;;;;;5385295;22;10001377;-82
2021/05/09 09:08:05;;;;;;;1.50;0.80;;;20.50;44.70;;;;;;2130948;23;10001992;-80
2021/05/09 09:10:38;;;;;;;2.67;0.93;;;20.50;42.10;;;;;;6185771;23;20068;-84
2021/05/09 09:13:20;;;;;;;0.80;0.52;;;20.60;45.00;;;;;;6134661;23;20071;-85
2021/05/09 09:15:54;;;;;;;2.45;0.82;;;20.90;44.10;;;;;;6184118;23;20251;-83
2021/05/09 09:18:32;;;;;;;2.10;0.82;;;21.00;44.00;;;;;;6184977;23;20045;-82
2021/05/09 09:21:00;;;;;;;4.57;1.95;;;21.10;42.90;;;;;;6186087;23;20350;-85
2021/05/09 09:23:54;;;;;;;2.70;1.13;;;21.30;43.60;;;;;;6159023;23;20021;-84
2021/05/09 09:26:30;;;;;;;3.95;0.85;;;21.40;43.50;;;;;;6176157;23;20327;-83
2021/05/09 09:28:58;;;;;;;1.38;0.70;;;21.60;41.80;;;;;;6136441;23;20013;-83
2021/05/09 09:31:38;;;;;;;1.83;0.80;;;21.80;41.70;;;;;;6180516;23;20025;-85
2021/05/09 09:34:05;;;;;;;2.83;0.83;;;21.80;41.50;;;;;;6186506;23;20025;-84
2021/05/09 09:36:33;;;;;;;1.85;0.80;;;21.90;42.50;;;;;;6186459;23;20044;-84
2021/05/09 09:39:01;;;;;;;1.98;1.08;;;22.10;42.40;;;;;;6159952;23;20028;-83
2021/05/09 09:41:43;;;;;;;1.25;0.70;;;22.30;41.60;;;;;;6188361;23;20017;-84
2021/05/09 09:44:13;;;;;;;1.98;0.90;;;22.40;41.30;;;;;;6185054;23;20032;-83
2021/05/09 09:46:43;;;;;;;1.67;0.82;;;22.60;41.20;;;;;;6159016;23;20048;-82
2021/05/09 09:49:22;;;;;;;2.60;0.88;;;22.80;39.90;;;;;;6160165;23;20025;-84
2021/05/09 09:51:52;;;;;;;1.42;0.77;;;23.10;39.60;;;;;;6184764;23;20028;-82
2021/05/09 09:54:33;;;;;;;2.88;1.00;;;23.30;39.00;;;;;;6183883;23;20048;-85
2021/05/09 09:57:02;;;;;;;1.58;0.77;;;23.60;39.20;;;;;;6155461;23;20032;-80
2021/05/09 09:59:30;;;;;;;1.58;0.85;;;23.80;37.40;;;;;;6185344;23;20020;-81
2021/05/09 10:01:58;;;;;;;1.83;0.80;;;24.30;37.80;;;;;;6106801;23;20217;-81
2021/05/09 10:04:25;;;;;;;2.42;1.00;;;24.80;36.30;;;;;;6152678;23;20077;-82
2021/05/09 10:06:52;;;;;;;1.27;0.77;;;25.10;35.90;;;;;;6154699;23;20073;-80
2021/05/09 10:09:19;;;;;;;2.80;0.95;;;25.80;34.60;;;;;;6126529;23;20064;-82
2021/05/09 10:11:47;;;;;;;2.47;0.80;;;26.70;33.50;;;;;;6127571;23;20025;-83
2021/05/09 10:14:17;;;;;;;1.52;0.90;;;27.30;32.90;;;;;;6131478;23;20033;-80
2021/05/09 10:16:50;;;;;;;1.27;0.60;;;28.10;31.60;;;;;;6158956;23;20017;-81
2021/05/09 10:19:23;;;;;;;2.97;0.90;;;28.80;30.10;;;;;;6156014;23;20048;-83
2021/05/09 10:21:50;;;;;;;2.47;1.08;;;29.30;29.00;;;;;;6158282;23;20192;-83
2021/05/09 10:24:19;;;;;;;2.10;1.13;;;29.70;28.70;;;;;;6158207;23;20029;-84
2021/05/09 10:26:50;;;;;;;1.63;0.90;;;29.90;28.80;;;;;;6132114;23;20348;-86
2021/05/09 10:29:49;;;;;;;1.92;1.08;;;30.10;27.60;;;;;;6158181;23;20339;-84
2021/05/09 10:32:49;;;;;;;2.45;0.80;;;30.30;27.00;;;;;;6068477;23;20216;-85
2021/05/09 10:35:33;;;;;;;2.45;0.90;;;31.00;27.00;;;;;;6155152;23;20495;-82
2021/05/09 10:38:08;;;;;;;2.08;0.80;;;30.50;27.20;;;;;;6134032;23;20192;-85
2021/05/09 10:40:42;;;;;;;1.88;0.93;;;30.60;27.50;;;;;;6157875;23;20025;-83
2021/05/09 10:43:32;;;;;;;4.10;1.00;;;31.00;27.10;;;;;;6159314;23;20025;-83
2021/05/09 10:45:59;;;;;;;2.30;1.10;;;30.90;27.20;;;;;;6109667;23;20049;-84
2021/05/09 10:48:31;;;;;;;1.27;0.80;;;31.30;26.90;;;;;;6133855;23;20316;-82
2021/05/09 10:51:28;;;;;;;2.40;0.90;;;32.30;25.90;;;;;;6133650;23;20044;-83
2021/05/09 10:54:19;;;;;;;3.20;0.98;;;33.10;24.70;;;;;;6124497;23;20237;-80
2021/05/09 10:56:48;;;;;;;2.80;0.80;;;33.10;24.40;;;;;;6159270;23;20029;-79
2021/05/09 10:59:17;;;;;;;2.78;1.10;;;33.20;24.10;;;;;;6134165;23;20021;-83
2021/05/09 11:01:45;;;;;;;2.47;1.05;;;33.70;24.00;;;;;;6171478;23;20040;-84
2021/05/09 11:04:15;;;;;;;1.90;0.93;;;33.50;23.60;;;;;;6162691;23;20024;-82
2021/05/09 11:06:52;;;;;;;2.08;1.20;;;33.10;24.40;;;;;;6189172;23;20024;-83
2021/05/09 11:09:33;;;;;;;2.22;0.80;;;33.00;24.40;;;;;;6158805;23;20063;-83
2021/05/09 11:12:03;;;;;;;1.33;0.80;;;33.10;24.10;;;;;;6188090;23;20052;-85
2021/05/09 11:14:37;;;;;;;2.63;0.90;;;33.20;24.20;;;;;;6189773;23;20028;-84
2021/05/09 11:17:18;;;;;;;2.33;0.90;;;33.90;23.70;;;;;;6189458;23;20179;-84
2021/05/09 11:19:49;;;;;;;2.15;0.75;;;33.20;22.10;;;;;;6185675;23;20021;-85
2021/05/09 11:22:21;;;;;;;1.33;0.80;;;32.60;23.90;;;;;;6161554;23;20029;-82
2021/05/09 11:24:58;;;;;;;1.35;0.70;;;33.30;24.30;;;;;;6188852;23;20025;-85
2021/05/09 11:27:26;;;;;;;1.38;0.77;;;33.60;23.20;;;;;;6161799;23;20021;-80
2021/05/09 11:29:54;;;;;;;1.98;0.82;;;33.10;22.70;;;;;;6135187;23;20456;-85
2021/05/09 11:32:23;;;;;;;3.10;0.82;;;33.00;22.50;;;;;;6159758;23;20029;-84
2021/05/09 11:34:52;;;;;;;1.10;0.70;;;32.30;23.30;;;;;;6160162;23;20025;-81
2021/05/09 11:37:23;;;;;;;;;;;33.10;23.10;;;;;;6159376;23;20290;-84
2021/05/09 11:39:51;;;;;;;1.67;0.98;;;32.90;23.00;;;;;;6184439;23;20093;-84
2021/05/09 11:42:19;;;;;;;1.85;0.90;;;33.10;22.80;;;;;;6158734;23;20177;-85
2021/05/09 11:44:48;;;;;;;1.10;0.75;;;34.30;21.90;;;;;;6159896;23;20299;-85
2021/05/09 11:47:20;;;;;;;2.28;1.00;;;34.10;21.40;;;;;;6161054;23;20200;-83
2021/05/09 11:49:48;;;;;;;2.92;0.77;;;33.90;21.90;;;;;;6186997;23;20043;-84
2021/05/09 11:52:18;;;;;;;;;;;34.80;21.50;;;;;;6193160;23;20232;-86
2021/05/09 11:54:46;;;;;;;1.40;0.80;;;33.90;22.40;;;;;;6197335;23;19947;-85
2021/05/09 11:57:15;;;;;;;1.38;1.02;;;33.80;23.20;;;;;;6170337;23;20032;-83
2021/05/09 11:59:43;;;;;;;2.70;0.98;;;33.80;22.80;;;;;;6169164;23;20044;-85
2021/05/09 12:02:25;;;;;;;2.47;0.73;;;34.90;21.80;;;;;;6191503;23;20025;-85
2021/05/09 12:04:56;;;;;;;1.85;0.70;;;34.90;21.80;;;;;;6198030;23;20023;-86
2021/05/09 12:07:25;;;;;;;1.65;0.90;;;35.40;21.60;;;;;;6197489;23;20052;-84
2021/05/09 12:10:04;;;;;;;2.17;1.02;;;35.70;21.10;;;;;;6196535;23;20013;-80
2021/05/09 12:12:33;;;;;;;2.40;0.73;;;35.30;21.60;;;;;;6194241;23;20024;-83
2021/05/09 12:15:09;;;;;;;1.73;0.68;;;35.00;22.10;;;;;;6197127;23;20029;-86
2021/05/09 12:17:49;;;;;;;2.03;0.80;;;34.80;22.10;;;;;;6171925;23;20028;-84
2021/05/09 12:20:31;;;;;;;1.45;0.75;;;35.10;21.80;;;;;;6172675;23;20083;-80
2021/05/09 12:23:00;;;;;;;1.52;0.77;;;36.50;21.00;;;;;;6170442;23;20064;-80
2021/05/09 12:25:37;;;;;;;1.10;0.70;;;36.50;20.50;;;;;;6146645;23;20052;-79
2021/05/09 12:28:07;;;;;;;3.92;0.80;;;36.40;20.70;;;;;;6170061;23;20025;-84
2021/05/09 12:30:34;;;;;;;1.25;0.60;;;36.60;20.60;;;;;;6170945;23;20283;-84
2021/05/09 12:33:02;;;;;;;2.30;1.02;;;36.00;20.80;;;;;;6196187;23;20021;-83
2021/05/09 12:35:41;;;;;;;1.58;0.65;;;35.50;21.80;;;;;;6198460;23;20028;-84
2021/05/09 12:38:08;;;;;;;2.53;1.10;;;35.80;21.50;;;;;;6198040;23;20043;-84
2021/05/09 12:40:38;;;;;;;2.13;0.93;;;36.70;20.60;;;;;;6195393;23;20005;-83
2021/05/09 12:43:07;;;;;;;2.35;1.10;;;37.30;20.00;;;;;;6173470;23;20028;-85
2021/05/09 12:45:42;;;;;;;3.33;1.33;;;36.50;20.80;;;;;;6197925;23;20319;-84
2021/05/09 12:48:19;;;;;;;4.70;1.63;;;36.70;20.30;;;;;;6171294;23;20044;-84
2021/05/09 12:50:58;;;;;;;5.82;1.10;;;36.90;20.60;;;;;;6196948;23;20021;-86
2021/05/09 12:53:36;;;;;;;;;;;37.80;20.00;;;;;;6173627;23;20263;-84
2021/05/09 12:56:20;;;;;;;2.33;1.17;;;36.90;20.50;;;;;;6202151;23;19919;-83
2021/05/09 12:59:11;;;;;;;1.13;0.80;;;36.00;21.60;;;;;;6174657;23;20239;-83
2021/05/09 13:01:43;;;;;;;2.70;0.90;;;34.90;21.80;;;;;;6196695;23;20021;-84
2021/05/09 13:04:36;;;;;;;3.17;0.90;;;34.60;22.20;;;;;;6199558;23;20035;-84
2021/05/09 13:07:05;;;;;;;1.88;0.80;;;34.20;23.00;;;;;;6174457;23;20019;-81
2021/05/09 13:09:34;;;;;;;2.83;0.70;;;32.70;24.30;;;;;;6200549;23;20025;-84
2021/05/09 13:12:03;;;;;;;2.97;0.80;;;32.60;24.50;;;;;;6173066;23;20072;-84
2021/05/09 13:14:40;;;;;;;1.55;0.60;;;32.10;25.10;;;;;;6171068;23;20036;-83
2021/05/09 13:17:07;;;;;;;2.33;1.13;;;31.50;26.00;;;;;;6171545;23;20071;-82
2021/05/09 13:19:39;;;;;;;1.80;0.95;;;32.10;26.00;;;;;;6146657;23;20060;-83
2021/05/09 13:22:06;;;;;;;2.30;1.02;;;33.00;24.60;;;;;;6196652;23;20029;-86
2021/05/09 13:24:33;;;;;;;1.17;0.80;;;32.90;24.80;;;;;;6146430;23;20020;-86
2021/05/09 13:27:04;;;;;;;2.40;0.85;;;33.30;24.60;;;;;;6172114;23;20370;-83
2021/05/09 13:29:37;;;;;;;2.47;1.08;;;32.60;25.00;;;;;;6195714;23;20031;-85
2021/05/09 13:32:05;;;;;;;2.45;0.85;;;32.70;25.00;;;;;;6170750;23;20024;-84
2021/05/09 13:34:32;;;;;;;2.50;0.93;;;32.50;25.50;;;;;;6171223;23;20027;-84
2021/05/09 13:37:03;;;;;;;2.57;0.73;;;32.40;24.40;;;;;;6195402;23;20352;-85
2021/05/09 13:39:32;;;;;;;2.50;0.73;;;33.40;23.70;;;;;;6170001;23;20032;-85
2021/05/09 13:42:00;;;;;;;2.37;0.90;;;33.60;23.00;;;;;;6171274;23;20051;-84
2021/05/09 13:44:29;;;;;;;1.15;0.70;;;34.10;22.90;;;;;;6146307;23;20025;-82
2021/05/09 13:46:58;;;;;;;1.50;0.80;;;35.10;21.60;;;;;;6203634;23;20025;-82
2021/05/09 13:49:25;;;;;;;2.33;0.63;;;36.50;20.10;;;;;;6201570;23;20019;-85
2021/05/09 13:51:54;;;;;;;3.08;0.80;;;37.30;19.10;;;;;;6180046;23;20371;-82
2021/05/09 13:54:22;;;;;;;1.40;0.70;;;37.50;18.70;;;;;;6203061;23;20021;-82
2021/05/09 13:56:51;;;;;;;3.03;0.60;;;37.10;17.90;;;;;;6203900;23;20062;-82
2021/05/09 13:59:18;;;;;;;2.17;0.80;;;36.80;18.10;;;;;;6205641;23;20040;-84
2021/05/09 14:01:46;;;;;;;1.83;0.68;;;36.00;18.40;;;;;;6175415;23;20021;-85
2021/05/09 14:04:15;;;;;;;1.98;0.68;;;35.90;18.30;;;;;;6155859;23;20024;-85
2021/05/09 14:06:43;;;;;;;2.30;1.02;;;36.90;17.90;;;;;;6179614;23;20048;-85
2021/05/09 14:09:11;;;;;;;3.17;0.60;;;37.70;17.30;;;;;;6180827;23;20021;-82
2021/05/09 14:11:42;;;;;;;5.78;1.13;;;37.60;16.90;;;;;;6178818;23;20075;-81
2021/05/09 14:14:13;;;;;;;3.72;0.82;;;36.90;16.60;;;;;;6205108;23;20017;-81
2021/05/09 14:16:41;;;;;;;0.80;0.60;;;37.20;16.80;;;;;;6178847;23;20009;-83
2021/05/09 14:19:08;;;;;;;3.55;1.08;;;37.30;16.60;;;;;;6203720;23;20210;-85
2021/05/09 14:21:35;;;;;;;1.20;0.63;;;37.80;16.60;;;;;;6204815;23;20025;-82
2021/05/09 14:24:09;;;;;;;2.10;0.63;;;38.00;16.20;;;;;;6178119;23;20048;-83
2021/05/09 14:26:43;;;;;;;3.65;0.77;;;37.60;16.10;;;;;;6202103;23;20029;-83
2021/05/09 14:29:11;;;;;;;1.40;0.90;;;37.10;16.60;;;;;;6204557;23;20072;-84
2021/05/09 14:31:38;;;;;;;2.25;0.75;;;36.30;17.50;;;;;;6174988;23;20056;-85
2021/05/09 14:34:05;;;;;;;0.63;0.63;;;37.50;16.80;;;;;;6201768;23;20080;-86
2021/05/09 14:36:32;;;;;;;1.48;0.50;;;37.50;16.40;;;;;;6151304;23;20040;-85
2021/05/09 14:38:59;;;;;;;3.03;0.80;;;37.40;16.20;;;;;;6201287;23;20031;-86
2021/05/09 14:41:29;;;;;;;2.60;0.70;;;37.30;16.40;;;;;;6175484;23;20061;-79
2021/05/09 14:43:58;;;;;;;2.40;0.70;;;36.00;17.50;;;;;;6174701;23;20056;-85
2021/05/09 14:46:25;;;;;;;1.60;0.60;;;36.90;17.20;;;;;;6175084;23;20017;-86
2021/05/09 14:48:52;;;;;;;3.83;1.35;;;36.40;17.50;;;;;;6172587;23;20020;-85
2021/05/09 14:51:19;;;;;;;1.88;1.20;;;36.30;16.90;;;;;;6200937;23;20035;-82
2021/05/09 14:53:48;;;;;;;3.35;1.27;;;36.50;17.30;;;;;;6174622;23;20021;-83
2021/05/09 14:56:17;;;;;;;3.28;0.95;;;36.60;17.60;;;;;;6199265;23;20248;-86
2021/05/09 14:58:45;;;;;;;1.23;0.52;;;36.00;17.80;;;;;;6201868;23;20036;-85
2021/05/09 15:01:13;;;;;;;2.28;1.00;;;36.10;17.40;;;;;;6193782;23;20024;-86
2021/05/09 15:03:40;;;;;;;2.20;1.03;;;36.30;17.30;;;;;;6200918;23;20017;-86
2021/05/09 15:06:09;;;;;;;3.38;1.23;;;37.40;16.90;;;;;;6199053;23;20050;-85
2021/05/09 15:08:38;;;;;;;1.60;0.80;;;37.20;16.60;;;;;;6174160;23;20017;-85
2021/05/09 15:11:05;;;;;;;3.00;0.90;;;36.60;17.40;;;;;;6174693;23;20017;-85
2021/05/09 15:13:32;;;;;;;1.73;0.77;;;36.20;17.70;;;;;;6174924;23;20051;-85
2021/05/09 15:16:00;;;;;;;6.72;1.10;;;36.60;17.20;;;;;;6175751;23;20060;-84
2021/05/09 15:18:34;;;;;;;2.00;0.82;;;36.10;17.70;;;;;;6177347;23;20017;-87
2021/05/09 15:21:04;;;;;;;1.83;0.77;;;35.30;18.90;;;;;;6178564;23;20028;-87
2021/05/09 15:23:34;;;;;;;1.85;0.98;;;35.50;18.40;;;;;;6155603;23;20021;-85
2021/05/09 15:26:06;;;;;;;0.90;0.70;;;34.20;19.40;;;;;;6177752;23;20036;-85
2021/05/09 15:28:36;;;;;;;1.92;0.73;;;33.90;20.10;;;;;;6177124;23;20024;-84
2021/05/09 15:31:04;;;;;;;1.50;0.50;;;33.90;20.20;;;;;;6176147;23;20025;-86
2021/05/09 15:33:33;;;;;;;1.63;0.70;;;34.20;20.20;;;;;;6202034;23;20073;-84
2021/05/09 15:36:09;;;;;;;;;;;34.90;19.70;;;;;;6178027;23;20053;-85
2021/05/09 15:38:38;;;;;;;2.42;1.02;;;35.00;19.50;;;;;;6198018;23;19912;-84
2021/05/09 15:41:06;;;;;;;1.92;1.02;;;35.80;18.40;;;;;;6170010;23;20339;-86
2021/05/09 15:43:34;;;;;;;1.85;0.77;;;35.50;19.10;;;;;;6200503;23;20025;-85
2021/05/09 15:46:04;;;;;;;1.27;0.77;;;35.40;19.40;;;;;;6172238;23;20040;-85
2021/05/09 15:48:39;;;;;;;2.13;0.60;;;34.50;20.40;;;;;;6150774;23;20187;-85
2021/05/09 15:51:06;;;;;;;3.60;0.90;;;34.40;20.00;;;;;;6175616;23;20227;-87
2021/05/09 15:53:36;;;;;;;3.72;1.55;;;34.60;20.00;;;;;;6177154;23;20017;-84
2021/05/09 15:56:05;;;;;;;1.40;0.80;;;34.20;20.30;;;;;;6130288;23;20028;-86
2021/05/09 15:58:33;;;;;;;1.95;0.70;;;34.30;20.50;;;;;;6174913;23;20017;-85
2021/05/09 16:01:02;;;;;;;1.60;0.93;;;34.00;20.60;;;;;;6172621;23;20021;-87
2021/05/09 16:03:32;;;;;;;2.22;0.80;;;33.90;21.10;;;;;;6203618;23;20012;-86
2021/05/09 16:06:03;;;;;;;3.00;0.90;;;33.90;20.90;;;;;;6200233;23;20033;-87
2021/05/09 16:08:37;;;;;;;1.27;0.70;;;33.40;21.90;;;;;;6200522;23;20025;-85
2021/05/09 16:11:05;;;;;;;2.42;0.70;;;33.20;21.80;;;;;;6175762;23;20028;-86
2021/05/09 16:13:34;;;;;;;2.72;0.90;;;32.50;22.30;;;;;;6153105;23;20029;-86
2021/05/09 16:16:04;;;;;;;1.92;1.13;;;32.20;22.50;;;;;;6200415;23;20020;-88
2021/05/09 16:18:32;;;;;;;2.10;1.00;;;31.90;23.30;;;;;;6174466;23;20016;-85
2021/05/09 16:21:00;;;;;;;2.28;1.20;;;32.00;23.70;;;;;;6176686;23;20032;-84
2021/05/09 16:23:29;;;;;;;2.40;1.38;;;31.70;23.90;;;;;;6173620;23;20036;-86
2021/05/09 16:25:56;;;;;;;3.10;1.27;;;31.30;24.70;;;;;;6150968;23;20029;-88
2021/05/09 16:28:25;;;;;;;2.15;1.02;;;31.00;24.90;;;;;;6201343;23;20024;-87
2021/05/09 16:30:52;;;;;;;3.67;1.40;;;30.80;25.40;;;;;;6150579;23;20060;-85
2021/05/09 16:33:21;;;;;;;2.90;1.50;;;30.60;25.60;;;;;;6176342;23;20218;-88
2021/05/09 16:35:51;;;;;;;4.35;1.63;;;30.50;25.70;;;;;;6150472;23;20021;-86
2021/05/09 16:38:20;;;;;;;3.70;1.40;;;30.20;26.30;;;;;;6201689;23;20300;-87
2021/05/09 16:40:48;;;;;;;2.38;0.90;;;30.30;26.20;;;;;;6176765;23;20035;-87
2021/05/09 16:43:15;;;;;;;2.15;1.02;;;30.00;26.30;;;;;;6175834;23;20027;-87
2021/05/09 16:45:43;;;;;;;3.85;1.20;;;29.90;26.80;;;;;;6201040;23;20044;-85
2021/05/09 16:48:11;;;;;;;1.67;1.00;;;30.10;26.20;;;;;;6203102;23;20395;-87
2021/05/09 16:50:38;;;;;;;2.72;1.38;;;30.50;26.20;;;;;;6149708;23;20024;-86
2021/05/09 16:53:12;;;;;;;1.83;1.00;;;30.70;25.80;;;;;;6151435;23;20323;-85
2021/05/09 16:55:40;;;;;;;1.40;0.73;;;29.80;26.00;;;;;;6149786;23;20021;-85
2021/05/09 16:58:07;;;;;;;2.97;1.00;;;29.40;25.80;;;;;;6150061;23;20327;-86
2021/05/09 17:00:34;;;;;;;5.10;1.23;;;29.30;26.30;;;;;;6171200;23;20227;-85
2021/05/09 17:03:08;;;;;;;3.70;0.98;;;29.40;26.80;;;;;;6174415;23;20283;-83
2021/05/09 17:05:35;;;;;;;4.13;0.98;;;29.10;27.90;;;;;;6174309;23;20020;-86
2021/05/09 17:08:06;;;;;;;2.15;1.10;;;28.70;28.50;;;;;;6146493;23;20132;-86
2021/05/09 17:10:33;;;;;;;2.20;1.33;;;28.60;28.40;;;;;;6173654;23;20167;-87
2021/05/09 17:13:06;;;;;;;1.73;0.93;;;28.50;28.70;;;;;;6147561;23;20040;-86
2021/05/09 17:15:34;;;;;;;2.00;1.00;;;28.40;29.30;;;;;;6149094;23;20027;-87
2021/05/09 17:18:05;;;;;;;2.17;0.75;;;28.20;29.60;;;;;;6147900;23;20252;-85
2021/05/09 17:20:32;;;;;;;3.85;1.40;;;28.20;29.10;;;;;;6199932;23;20036;-87
2021/05/09 17:23:08;;;;;;;3.40;1.30;;;28.10;29.50;;;;;;6178899;23;20024;-86
2021/05/09 17:25:37;;;;;;;3.33;1.27;;;27.70;30.10;;;;;;6150197;23;20044;-86
2021/05/09 17:28:07;;;;;;;2.53;1.10;;;27.10;31.10;;;;;;6155841;23;20052;-84
2021/05/09 17:30:37;;;;;;;2.33;1.08;;;26.50;31.80;;;;;;6202325;23;20017;-86
2021/05/09 17:33:04;;;;;;;2.92;1.25;;;26.20;31.90;;;;;;6149366;23;20024;-87
2021/05/09 17:35:44;;;;;;;4.05;1.02;;;25.80;32.50;;;;;;6200644;23;20220;-87
2021/05/09 17:38:12;;;;;;;4.10;1.52;;;25.50;32.80;;;;;;6148177;23;20023;-84
2021/05/09 17:40:40;;;;;;;2.70;1.52;;;25.20;34.20;;;;;;6174730;23;20024;-86
2021/05/09 17:43:08;;;;;;;3.08;1.55;;;25.10;35.10;;;;;;6175956;23;20024;-87
2021/05/09 17:45:38;;;;;;;5.03;1.42;;;25.10;35.90;;;;;;6197495;23;20031;-85
2021/05/09 17:48:06;;;;;;;3.67;2.13;;;24.90;36.60;;;;;;6170606;23;20046;-85
2021/05/09 17:50:35;;;;;;;2.47;1.13;;;24.80;37.40;;;;;;6175198;23;20025;-82
2021/05/09 17:53:03;;;;;;;3.38;1.42;;;24.60;37.70;;;;;;6153264;23;20025;-86
2021/05/09 17:55:31;;;;;;;2.60;1.20;;;24.50;40.40;;;;;;6166575;23;20052;-86